createdAt,value
2023-02-03T00:00:01.097Z,8.33
2023-02-03T00:02:27.846Z,8.42
2023-02-03T00:04:55.841Z,8.38
2023-02-03T00:07:22.509Z,8.47
2023-02-03T00:09:49.216Z,8.52
2023-02-03T00:12:16.026Z,8.60
2023-02-03T00:14:42.764Z,8.62
2023-02-03T00:17:09.482Z,8.60
2023-02-03T00:19:36.277Z,8.67
2023-02-03T00:22:04.495Z,8.72
2023-02-03T00:24:31.130Z,8.71
2023-02-03T00:26:57.842Z,8.64
2023-02-03T00:29:24.635Z,8.71
2023-02-03T00:31:52.352Z,8.68
2023-02-03T00:34:19.126Z,8.66
2023-02-03T00:36:46.058Z,8.67
2023-02-03T00:39:14.479Z,8.66
2023-02-03T00:41:41.137Z,8.61
2023-02-03T00:44:07.766Z,8.67
2023-02-03T00:46:34.858Z,8.67
2023-02-03T00:49:02.484Z,8.66
2023-02-03T00:51:29.288Z,8.59
2023-02-03T00:53:56.074Z,8.59
2023-02-03T00:56:24.150Z,8.61
2023-02-03T00:58:50.950Z,8.59
2023-02-03T01:01:18.174Z,8.56
2023-02-03T01:03:44.932Z,8.55
2023-02-03T01:06:14.843Z,8.61
2023-02-03T01:08:42.195Z,8.62
2023-02-03T01:11:10.157Z,8.64
2023-02-03T01:13:38.594Z,8.65
2023-02-03T01:16:08.858Z,8.63
2023-02-03T01:18:35.597Z,8.61
2023-02-03T01:21:07.885Z,8.65
2023-02-03T01:23:35.393Z,8.64
2023-02-03T01:26:03.672Z,8.60
2023-02-03T01:28:30.280Z,8.62
2023-02-03T01:30:58.824Z,8.62
2023-02-03T01:33:25.524Z,8.62
2023-02-03T01:35:52.305Z,8.56
2023-02-03T01:38:18.962Z,8.75
2023-02-03T01:40:45.770Z,8.68
2023-02-03T01:43:29.097Z,8.66
2023-02-03T01:45:55.963Z,8.64
2023-02-03T01:48:24.243Z,8.65
2023-02-03T01:50:50.986Z,8.61
2023-02-03T01:53:17.677Z,8.60
2023-02-03T01:55:48.376Z,8.67
2023-02-03T01:58:19.346Z,8.58
2023-02-03T02:00:48.373Z,8.60
2023-02-03T02:03:19.818Z,8.59
2023-02-03T02:05:51.347Z,8.58
2023-02-03T02:08:20.411Z,8.48
2023-02-03T02:10:47.259Z,8.57
2023-02-03T02:13:15.740Z,8.66
2023-02-03T02:15:52.227Z,8.59
2023-02-03T02:18:41.803Z,8.53
2023-02-03T02:21:37.722Z,8.57
2023-02-03T02:24:34.223Z,8.48
2023-02-03T02:27:07.399Z,8.46
2023-02-03T02:30:06.088Z,8.46
2023-02-03T02:32:47.354Z,8.51
2023-02-03T02:35:24.485Z,8.54
2023-02-03T02:37:59.559Z,8.44
2023-02-03T02:40:33.921Z,8.52
2023-02-03T02:43:08.923Z,8.51
2023-02-03T02:45:49.228Z,8.51
2023-02-03T02:48:23.291Z,8.58
2023-02-03T02:50:53.662Z,8.58
2023-02-03T02:53:24.177Z,8.53
2023-02-03T02:55:53.604Z,8.56
2023-02-03T02:58:23.420Z,8.53
2023-02-03T03:00:50.626Z,8.51
2023-02-03T03:03:20.784Z,8.50
2023-02-03T03:05:52.681Z,8.45
2023-02-03T03:08:31.673Z,8.39
2023-02-03T03:11:01.125Z,8.37
2023-02-03T03:13:38.440Z,8.40
2023-02-03T03:16:08.068Z,8.42
2023-02-03T03:18:41.927Z,8.42
2023-02-03T03:21:11.359Z,8.44
2023-02-03T03:23:43.487Z,8.44
2023-02-03T03:26:14.629Z,8.43
2023-02-03T03:28:48.038Z,8.48
2023-02-03T03:31:16.288Z,8.44
2023-02-03T03:33:45.316Z,8.43
2023-02-03T03:36:20.496Z,8.43
2023-02-03T03:38:55.214Z,8.53
2023-02-03T03:41:34.944Z,8.53
2023-02-03T03:44:04.817Z,8.56
2023-02-03T03:46:39.961Z,8.56
2023-02-03T03:49:10.678Z,8.49
2023-02-03T03:51:41.864Z,8.55
2023-02-03T03:54:12.472Z,8.53
2023-02-03T03:56:48.368Z,8.51
2023-02-03T03:59:19.489Z,8.48
2023-02-03T04:01:48.076Z,8.48
2023-02-03T04:04:16.684Z,8.44
2023-02-03T04:06:43.519Z,8.41
2023-02-03T04:09:10.170Z,8.39
2023-02-03T04:11:36.943Z,8.38
2023-02-03T04:14:03.960Z,8.35
2023-02-03T04:16:31.396Z,8.38
2023-02-03T04:18:58.158Z,8.38
2023-02-03T04:21:26.397Z,8.32
2023-02-03T04:23:53.112Z,8.30
2023-02-03T04:26:19.862Z,8.29
2023-02-03T04:28:46.486Z,8.26
2023-02-03T04:31:13.223Z,8.30
2023-02-03T04:33:40.095Z,8.30
2023-02-03T04:36:07.781Z,8.31
2023-02-03T04:38:36.058Z,8.34
2023-02-03T04:41:03.078Z,8.35
2023-02-03T04:43:33.117Z,8.32
2023-02-03T04:46:00.453Z,8.32
2023-02-03T04:48:27.283Z,8.33
2023-02-03T04:50:54.309Z,8.44
2023-02-03T04:53:21.172Z,8.43
2023-02-03T04:55:49.318Z,8.47
2023-02-03T04:58:15.966Z,8.42
2023-02-03T05:00:42.771Z,8.46
2023-02-03T05:03:09.489Z,8.45
2023-02-03T05:05:36.356Z,8.48
2023-02-03T05:08:03.092Z,8.43
2023-02-03T05:10:30.253Z,8.43
2023-02-03T05:12:58.698Z,8.39
2023-02-03T05:15:25.418Z,8.44
2023-02-03T05:17:52.398Z,8.42
2023-02-03T05:20:19.259Z,8.43
2023-02-03T05:22:46.391Z,8.38
2023-02-03T05:25:13.248Z,8.32
2023-02-03T05:27:40.211Z,8.32
2023-02-03T05:30:11.054Z,8.35
2023-02-03T05:32:37.923Z,8.34
2023-02-03T05:35:04.998Z,8.35
2023-02-03T05:37:31.732Z,8.36
2023-02-03T05:39:58.564Z,8.36
2023-02-03T05:42:29.915Z,8.39
2023-02-03T05:44:56.786Z,8.28
2023-02-03T05:47:24.825Z,8.23
2023-02-03T05:49:51.456Z,8.16
2023-02-03T05:52:18.209Z,8.20
2023-02-03T05:54:44.861Z,8.23
2023-02-03T05:57:11.500Z,8.31
2023-02-03T05:59:38.141Z,8.36
2023-02-03T06:02:04.964Z,8.31
2023-02-03T06:04:32.990Z,8.47
2023-02-03T06:06:59.580Z,8.49
2023-02-03T06:09:26.178Z,8.48
2023-02-03T06:11:53.453Z,8.56
2023-02-03T06:14:20.385Z,8.41
2023-02-03T06:16:47.193Z,8.39
2023-02-03T06:19:16.189Z,8.33
2023-02-03T06:21:44.417Z,8.38
2023-02-03T06:24:11.028Z,8.38
2023-02-03T06:26:37.645Z,8.41
2023-02-03T06:29:04.307Z,8.40
2023-02-03T06:31:31.191Z,8.37
2023-02-03T06:33:59.970Z,8.33
2023-02-03T06:36:57.764Z,8.30
2023-02-03T06:39:50.017Z,8.18
2023-02-03T06:45:54.100Z,8.31
2023-02-03T06:48:24.718Z,8.34
2023-02-03T06:50:51.568Z,8.37
2023-02-03T06:58:46.317Z,8.40
2023-02-03T07:03:57.729Z,8.45
2023-02-03T07:06:34.042Z,8.66
2023-02-03T07:15:29.240Z,8.59
2023-02-03T07:20:43.283Z,8.58
2023-02-03T07:23:09.814Z,8.68
2023-02-03T07:25:36.354Z,8.71
2023-02-03T07:28:03.085Z,8.65
2023-02-03T07:30:30.091Z,8.58
2023-02-03T07:32:58.373Z,8.51
2023-02-03T07:35:25.424Z,8.56
2023-02-03T07:37:52.017Z,8.53
2023-02-03T07:40:18.954Z,8.59
2023-02-03T07:42:47.281Z,8.57
2023-02-03T07:45:16.280Z,8.56
2023-02-03T07:47:44.171Z,8.63
2023-02-03T07:50:12.898Z,8.60
2023-02-03T07:52:40.004Z,8.58
2023-02-03T07:55:07.638Z,8.60
2023-02-03T07:57:34.258Z,8.65
2023-02-03T08:00:01.012Z,8.66
2023-02-03T08:02:27.849Z,8.65
2023-02-03T08:04:54.556Z,8.62
2023-02-03T08:07:22.622Z,8.66
2023-02-03T08:09:49.425Z,8.68
2023-02-03T08:12:16.279Z,8.65
2023-02-03T08:14:42.971Z,8.61
2023-02-03T08:17:09.723Z,8.68
2023-02-03T08:19:36.437Z,8.74
2023-02-03T08:22:03.180Z,8.82
2023-02-03T08:24:32.265Z,8.82
2023-02-03T08:27:00.387Z,8.74
2023-02-03T08:29:27.191Z,8.85
2023-02-03T08:31:53.996Z,8.90
2023-02-03T08:34:20.777Z,8.76
2023-02-03T08:36:47.515Z,8.85
2023-02-03T08:39:14.227Z,8.85
2023-02-03T08:41:42.323Z,8.87
2023-02-03T08:44:09.123Z,8.90
2023-02-03T08:46:36.440Z,8.92
2023-02-03T08:49:03.289Z,8.96
2023-02-03T08:51:30.186Z,9.02
2023-02-03T08:53:56.974Z,9.02
2023-02-03T08:56:23.793Z,9.02
2023-02-03T08:58:52.301Z,9.05
2023-02-03T09:01:20.029Z,9.05
2023-02-03T09:03:46.908Z,9.07
2023-02-03T09:06:13.705Z,9.07
2023-02-03T09:08:45.070Z,9.17
2023-02-03T09:11:13.242Z,9.21
2023-02-03T09:13:41.510Z,9.22
2023-02-03T09:16:09.885Z,9.25
2023-02-03T09:18:36.629Z,9.29
2023-02-03T09:21:06.493Z,9.26
2023-02-03T09:23:34.007Z,9.26
2023-02-03T09:26:03.853Z,9.33
2023-02-03T09:28:50.261Z,9.38
2023-02-03T09:31:26.174Z,9.34
2023-02-03T09:33:58.516Z,9.29
2023-02-03T09:36:25.321Z,9.24
2023-02-03T09:38:55.237Z,9.32
2023-02-03T09:41:42.331Z,9.34
2023-02-03T09:47:13.862Z,9.30
2023-02-03T09:52:29.198Z,9.37
2023-02-03T09:55:04.568Z,9.31
2023-02-03T09:57:40.592Z,9.32
2023-02-03T10:00:16.664Z,9.34
2023-02-03T10:02:55.899Z,9.39
2023-02-03T10:05:30.307Z,9.37
2023-02-03T10:08:08.237Z,9.33
2023-02-03T10:10:40.562Z,9.34
2023-02-03T10:13:27.078Z,9.35
2023-02-03T10:16:14.951Z,9.36
2023-02-03T10:18:47.568Z,9.40
2023-02-03T10:21:26.467Z,9.40
2023-02-03T10:24:05.114Z,9.38
2023-02-03T10:26:32.129Z,9.34
2023-02-03T10:29:05.278Z,9.32
2023-02-03T10:31:36.139Z,9.33
2023-02-03T10:34:15.083Z,9.32
2023-02-03T10:36:55.012Z,9.34
2023-02-03T10:39:29.962Z,9.39
2023-02-03T10:41:57.299Z,9.43
2023-02-03T10:44:32.762Z,9.45
2023-02-03T10:47:01.201Z,9.48
2023-02-03T10:49:29.718Z,9.50
2023-02-03T10:52:01.488Z,9.37
2023-02-03T10:54:32.090Z,9.43
2023-02-03T10:57:03.586Z,9.44
2023-02-03T10:59:33.503Z,9.41
2023-02-03T11:02:00.923Z,9.39
2023-02-03T11:04:33.959Z,9.38
2023-02-03T11:07:03.378Z,9.32
2023-02-03T11:09:36.420Z,9.36
2023-02-03T11:12:12.748Z,9.34
2023-02-03T11:14:42.183Z,9.31
2023-02-03T11:17:18.928Z,9.30
2023-02-03T11:19:50.693Z,9.25
2023-02-03T11:22:29.317Z,9.31
2023-02-03T11:24:57.574Z,9.26
2023-02-03T11:27:26.157Z,9.28
2023-02-03T11:30:14.814Z,9.27
2023-02-03T11:32:43.401Z,9.26
2023-02-03T11:35:20.368Z,9.25
2023-02-03T11:37:50.237Z,9.21
2023-02-03T11:40:29.900Z,9.22
2023-02-03T11:43:16.459Z,9.21
2023-02-03T11:45:54.718Z,9.22
2023-02-03T11:48:28.289Z,9.25
2023-02-03T11:51:04.055Z,9.25
2023-02-03T11:53:56.598Z,9.21
2023-02-03T11:56:37.864Z,9.15
2023-02-03T11:59:35.804Z,9.16
2023-02-03T12:02:20.553Z,9.20
2023-02-03T12:05:17.775Z,9.18
2023-02-03T12:07:59.929Z,9.16
2023-02-03T12:10:38.865Z,9.15
2023-02-03T12:13:23.821Z,9.09
2023-02-03T12:16:03.703Z,9.09
2023-02-03T12:18:48.030Z,9.12
2023-02-03T12:21:37.405Z,9.09
2023-02-03T12:24:19.357Z,9.06
2023-02-03T12:26:54.138Z,9.06
2023-02-03T12:29:26.053Z,9.03
2023-02-03T12:32:03.310Z,9.07
2023-02-03T12:34:35.733Z,9.06
2023-02-03T12:37:07.079Z,9.08
2023-02-03T12:39:42.233Z,9.11
2023-02-03T12:42:16.139Z,9.12
2023-02-03T12:44:48.721Z,9.09
2023-02-03T12:47:21.762Z,9.06
2023-02-03T12:49:54.953Z,8.93
2023-02-03T12:52:28.899Z,8.97
2023-02-03T12:55:07.738Z,8.97
2023-02-03T12:57:39.979Z,8.94
2023-02-03T13:00:26.514Z,8.96
2023-02-03T13:03:09.371Z,8.92
2023-02-03T13:05:45.232Z,8.94
2023-02-03T13:08:22.307Z,8.93
2023-02-03T13:10:55.344Z,8.85
2023-02-03T13:13:32.883Z,8.83
2023-02-03T13:16:02.285Z,8.78
2023-02-03T13:18:32.868Z,8.77
2023-02-03T13:21:02.731Z,8.77
2023-02-03T13:23:29.758Z,8.78
2023-02-03T13:26:24.123Z,8.79
2023-02-03T13:29:09.550Z,8.79
2023-02-03T13:31:49.244Z,8.79
2023-02-03T13:34:37.816Z,8.75
2023-02-03T13:37:32.313Z,8.75
2023-02-03T13:40:14.225Z,8.77
2023-02-03T13:42:49.441Z,8.74
2023-02-03T13:45:25.536Z,8.68
2023-02-03T13:51:03.240Z,8.75
2023-02-03T13:53:41.592Z,8.73
2023-02-03T13:56:17.432Z,8.73
2023-02-03T13:59:18.977Z,8.72
2023-02-03T14:01:47.979Z,8.69
2023-02-03T14:04:53.056Z,8.68
2023-02-03T14:07:33.654Z,8.66
2023-02-03T14:10:22.081Z,8.68
2023-02-03T14:12:59.614Z,8.59
2023-02-03T14:15:33.961Z,8.54
2023-02-03T14:18:32.787Z,8.60
2023-02-03T14:24:11.886Z,8.57
2023-02-03T14:26:58.655Z,8.50
2023-02-03T14:34:56.740Z,8.43
2023-02-03T14:37:27.656Z,8.38
2023-02-03T14:43:36.933Z,8.38
2023-02-03T14:49:33.125Z,8.51
2023-02-03T14:52:30.366Z,8.50
2023-02-03T14:58:44.664Z,8.44
2023-02-03T15:01:47.914Z,8.38
2023-02-03T15:04:22.854Z,8.35
2023-02-03T15:06:52.667Z,8.33
2023-02-03T15:09:33.279Z,8.30
2023-02-03T15:12:00.163Z,8.25
2023-02-03T15:14:30.237Z,8.27
2023-02-03T15:17:31.188Z,8.23
2023-02-03T15:19:59.460Z,8.22
2023-02-03T15:22:29.041Z,8.24
2023-02-03T15:24:57.742Z,8.19
2023-02-03T15:27:26.826Z,8.17
2023-02-03T15:29:54.497Z,8.18
2023-02-03T15:32:29.027Z,8.15
2023-02-03T15:35:02.753Z,8.16
2023-02-03T15:37:37.378Z,8.15
2023-02-03T15:40:11.969Z,8.15
2023-02-03T15:45:37.608Z,8.08
2023-02-03T15:57:42.472Z,8.01
2023-02-03T16:03:17.711Z,7.97
2023-02-03T16:05:46.186Z,7.97
2023-02-03T16:08:36.932Z,7.97
2023-02-03T16:11:27.296Z,7.97
2023-02-03T16:13:58.790Z,7.89
2023-02-03T16:16:30.109Z,7.88
2023-02-03T16:18:59.011Z,7.88
2023-02-03T16:21:30.051Z,7.84
2023-02-03T16:23:57.935Z,7.78
2023-02-03T16:26:26.304Z,7.76
2023-02-03T16:29:11.432Z,7.73
2023-02-03T16:31:45.610Z,7.76
2023-02-03T16:34:19.759Z,7.73
2023-02-03T16:39:29.582Z,7.58
2023-02-03T16:41:58.470Z,7.51
2023-02-03T16:44:28.708Z,7.43
2023-02-03T16:46:55.522Z,7.38
2023-02-03T16:49:22.353Z,7.36
2023-02-03T16:51:49.171Z,7.30
2023-02-03T16:54:16.333Z,7.27
2023-02-03T16:56:43.174Z,7.22
2023-02-03T16:59:10.124Z,7.15
2023-02-03T17:01:38.420Z,7.10
2023-02-03T17:04:05.435Z,7.10
2023-02-03T17:06:32.165Z,7.15
2023-02-03T17:08:59.495Z,7.12
2023-02-03T17:11:26.776Z,7.12
2023-02-03T17:13:54.955Z,7.07
2023-02-03T17:16:28.487Z,7.04
2023-02-03T17:18:58.462Z,7.04
2023-02-03T17:21:27.684Z,7.00
2023-02-03T17:23:55.037Z,6.93
2023-02-03T17:26:22.617Z,6.89
2023-02-03T17:28:49.942Z,6.93
2023-02-03T17:31:19.372Z,7.05
2023-02-03T17:33:52.249Z,7.08
2023-02-03T17:36:35.967Z,7.07
2023-02-03T17:55:34.144Z,7.13
2023-02-03T17:58:03.417Z,7.16
2023-02-03T18:00:33.087Z,7.17
2023-02-03T18:03:00.397Z,7.17
2023-02-03T18:05:27.521Z,7.18
2023-02-03T18:07:55.685Z,7.15
2023-02-03T18:10:22.467Z,7.21
2023-02-03T18:12:49.612Z,7.34
2023-02-03T18:15:17.351Z,7.34
2023-02-03T18:17:44.082Z,7.33
2023-02-03T18:20:14.289Z,7.36
2023-02-03T18:22:41.553Z,7.41
2023-02-03T18:25:09.989Z,7.41
2023-02-03T18:27:36.867Z,7.41
2023-02-03T18:30:04.638Z,7.44
2023-02-03T18:32:31.651Z,7.45
2023-02-03T18:34:59.617Z,7.44
2023-02-03T18:37:27.454Z,7.48
2023-02-03T18:39:54.237Z,7.48
2023-02-03T18:42:22.554Z,7.49
2023-02-03T18:44:49.570Z,7.52
2023-02-03T18:47:16.435Z,7.48
2023-02-03T18:49:43.599Z,7.51
2023-02-03T18:52:10.470Z,7.52
2023-02-03T18:54:37.892Z,7.51
2023-02-03T18:57:05.743Z,7.49
2023-02-03T18:59:33.923Z,7.47
2023-02-03T19:02:00.631Z,7.48
2023-02-03T19:04:27.401Z,7.43
2023-02-03T19:06:55.454Z,7.49
2023-02-03T19:09:22.436Z,7.47
2023-02-03T19:11:49.408Z,7.50
2023-02-03T19:14:16.595Z,7.49
2023-02-03T19:16:45.004Z,7.49
2023-02-03T19:19:12.839Z,7.51
2023-02-03T19:21:39.658Z,7.52
2023-02-03T19:24:07.125Z,7.52
2023-02-03T19:26:34.016Z,7.56
2023-02-03T19:29:00.715Z,7.60
2023-02-03T19:31:27.467Z,7.56
2023-02-03T19:33:56.848Z,7.58
2023-02-03T19:36:23.945Z,7.58
2023-02-03T19:38:50.628Z,7.55
2023-02-03T19:41:17.259Z,7.53
2023-02-03T19:43:43.981Z,7.50
2023-02-03T19:46:13.025Z,7.55
2023-02-03T19:48:39.946Z,7.51
2023-02-03T19:51:08.269Z,7.48
2023-02-03T19:53:34.985Z,7.43
2023-02-03T19:56:01.714Z,7.34
2023-02-03T19:58:28.428Z,7.41
2023-02-03T20:00:55.614Z,7.43
2023-02-03T20:03:23.168Z,7.41
2023-02-03T20:05:50.667Z,7.40
2023-02-03T20:08:19.298Z,7.39
2023-02-03T20:10:46.113Z,7.42
2023-02-03T20:13:13.083Z,7.41
2023-02-03T20:15:40.416Z,7.40
2023-02-03T20:18:08.274Z,7.39
2023-02-03T20:20:35.394Z,7.38
2023-02-03T20:23:02.280Z,7.40
2023-02-03T20:25:30.447Z,7.41
2023-02-03T20:27:57.328Z,7.41
2023-02-03T20:30:24.329Z,7.35
2023-02-03T20:32:51.580Z,7.43
2023-02-03T20:35:20.329Z,7.42
2023-02-03T20:37:49.438Z,7.38
2023-02-03T20:40:17.789Z,7.37
2023-02-03T20:42:45.839Z,7.41
2023-02-03T20:45:13.987Z,7.33
2023-02-03T20:47:41.098Z,7.33
2023-02-03T20:50:12.726Z,7.42
2023-02-03T20:52:39.362Z,7.41
2023-02-03T20:55:12.288Z,7.36
2023-02-03T20:57:42.176Z,7.40
2023-02-03T21:00:16.513Z,7.43
2023-02-03T21:02:44.533Z,7.41
2023-02-03T21:05:23.796Z,7.48
2023-02-03T21:07:50.879Z,7.49
2023-02-03T21:10:20.240Z,7.50
2023-02-03T21:12:47.065Z,7.51
2023-02-03T21:15:19.973Z,7.56
2023-02-03T21:17:46.813Z,7.56
2023-02-03T21:20:24.201Z,7.59
2023-02-03T21:22:51.053Z,7.64
2023-02-03T21:25:27.214Z,7.68
2023-02-03T21:27:53.970Z,7.72
2023-02-03T21:30:28.029Z,7.74
2023-02-03T21:32:55.117Z,7.70
2023-02-03T21:35:24.677Z,7.70
2023-02-03T21:37:53.242Z,7.68
2023-02-03T21:40:25.764Z,7.68
2023-02-03T21:42:53.641Z,7.71
2023-02-03T21:45:28.636Z,7.68
2023-02-03T21:47:58.535Z,7.70
2023-02-03T21:50:30.484Z,7.68
2023-02-03T21:52:59.375Z,7.67
2023-02-03T21:55:26.274Z,7.69
2023-02-03T21:57:54.438Z,7.73
2023-02-03T22:00:39.525Z,7.69
2023-02-03T22:03:06.306Z,7.65
2023-02-03T22:05:33.281Z,7.62
2023-02-03T22:08:00.285Z,7.64
2023-02-03T22:10:26.982Z,7.64
2023-02-03T22:12:53.672Z,7.65
2023-02-03T22:15:20.590Z,7.58
2023-02-03T22:17:48.712Z,7.53
2023-02-03T22:20:15.603Z,7.52
2023-02-03T22:22:42.574Z,7.48
2023-02-03T22:25:09.294Z,7.46
2023-02-03T22:27:36.047Z,7.40
2023-02-03T22:30:02.912Z,7.40
2023-02-03T22:32:29.726Z,7.42
2023-02-03T22:34:57.743Z,7.42
2023-02-03T22:37:24.413Z,7.39
2023-02-03T22:39:51.117Z,7.37
2023-02-03T22:42:17.789Z,7.36
2023-02-03T22:44:44.423Z,7.37
2023-02-03T22:47:11.078Z,7.30
2023-02-03T22:49:37.740Z,7.31
2023-02-03T22:52:05.787Z,7.32
2023-02-03T22:54:32.402Z,7.31
2023-02-03T22:56:59.111Z,7.29
2023-02-03T22:59:25.802Z,7.27
2023-02-03T23:01:52.484Z,7.25
2023-02-03T23:04:19.283Z,7.33
2023-02-03T23:06:45.992Z,7.33
2023-02-03T23:09:14.071Z,7.35
2023-02-03T23:11:41.007Z,7.30
2023-02-03T23:14:08.077Z,7.30
2023-02-03T23:16:34.898Z,7.25
2023-02-03T23:19:01.623Z,7.23
2023-02-03T23:21:28.299Z,7.18
2023-02-03T23:23:54.943Z,7.15
2023-02-03T23:26:23.064Z,7.15
2023-02-03T23:28:49.978Z,7.14
2023-02-03T23:31:16.732Z,7.15
2023-02-03T23:33:43.543Z,7.19
2023-02-03T23:36:10.193Z,7.18
2023-02-03T23:38:36.917Z,7.16
2023-02-03T23:41:05.030Z,7.18
2023-02-03T23:43:33.093Z,7.11
2023-02-03T23:45:59.834Z,7.16
2023-02-03T23:48:26.494Z,7.20
2023-02-03T23:50:53.202Z,7.24
2023-02-03T23:53:20.174Z,7.22
2023-02-03T23:55:47.318Z,7.21
2023-02-03T23:58:14.068Z,7.16
